McGregor, IA (52157)

3:51 PM CST on February 08, 2016 (GMT -0600)
Prairie du Chien | | Change Station
CLOSE
Current Station
Personal Weather Station
Location: Prairie Du Chien, WI
Elevation: 681 ft
Nearby Weather Stations

Elev 681 ft 43.04 °N, 91.14 °W | Updated 17 seconds ago

Overcast
Overcast
22.1 °F
Feels Like 17 °F
N
3.5
Wind Variable Wind from WNW
Gusts 6.9 mph

Today
High -- | Low -- °F
--% Chance of Precip.
Yesterday
High -- | Low -- °F
Precip. -- in
Pressure 29.85 in
Visibility 10.0 miles
Clouds Overcast 4100 ft
Windchill 17 °F
Dew Point 4 °F
Humidity 44%
Rainfall 0.00 in
Snow Depth Not available.
7:12 AM 5:26 PM
New Moon, 0% visible
METAR KPDC 082135Z AUTO 28016G19KT 10SM OVC041 M06/M13 A2985 RMK AO2 T10651129
Pressure 29.85 in
Visibility 10.0 miles
Clouds Overcast 4100 ft
Windchill 17 °F
Dew Point 4 °F
Humidity 44%
Rainfall 0.00 in
Snow Depth Not available.
7:12 AM 5:26 PM
New Moon, 0% visible
METAR KPDC 082135Z AUTO 28016G19KT 10SM OVC041 M06/M13 A2985 RMK AO2 T10651129

10-Day Weather Forecast

Almanac

Astronomy

Feb. 08, 2016 Rise Set
Actual Time
Civil Twilight
Nautical Twilight
Astronomical Twilight
Moon
Length of Visible Light
Length of Day
Tomorrow will be .
, % of the Moon is Illuminated

Today's Extremes

State Highs State Lows

Community

WunderPhotos

Upload Photos

1,891,512 photos uploaded!

WunderBlog® & News

Nearby

Air Quality

  Air Quality AQ Index Pollutant
Not available.

Snow Depth

Station Depth Elevation

Earthquake Activity

City Distance Mag. Time & Date
Minimum magnitude displayed is 2.5.

Coastal Water Temperatures

Place Temperature

Stations

Nearby Weather Stations

Station Location Temp. Windchill Dew Point Humidity Wind Precip. Elev Updated Type
                   

Watches & Warnings

There are currently no watches in effect.